Time;durP1;ratioP1;P1;durP2;ratioP2;P2;SDS_P1;SDS_P2;PMS_P1;PMS_P2;Temp;Humidity;BMP_temperature;BMP_pressure;BME280_temperature;BME280_humidity;BME280_pressure;Samples;Min_cycle;Max_cycle;Signal;HPM_P1;HPM_P2
2024/04/21 16:10:55;;;;;;;7.87;4.80;;;6.00;99.90;;;;;;5498850;25;1193870;-75
2024/04/21 16:13:42;;;;;;;6.43;3.87;;;5.90;99.90;;;;;;5505077;26;20213;-75
2024/04/21 16:16:30;;;;;;;9.10;3.90;;;6.00;99.90;;;;;;5502055;26;20262;-75
2024/04/21 16:19:18;;;;;;;5.37;3.70;;;6.00;99.90;;;;;;5495537;26;20256;-76
2024/04/21 16:22:05;;;;;;;4.70;3.50;;;6.00;99.90;;;;;;5467062;26;20217;-76
2024/04/21 16:24:53;;;;;;;6.47;3.63;;;6.10;99.90;;;;;;5467104;26;20261;-76
2024/04/21 16:27:40;;;;;;;5.07;3.70;;;6.10;99.90;;;;;;5468282;26;20226;-75
2024/04/21 16:30:29;;;;;;;6.17;3.80;;;6.20;99.90;;;;;;5467116;26;20266;-75
2024/04/21 16:33:16;;;;;;;8.70;3.93;;;6.20;99.90;;;;;;5466798;26;20319;-76
2024/04/21 16:36:07;;;;;;;19.90;13.65;;;6.30;99.90;;;;;;5467148;26;20419;-80
2024/04/21 16:38:55;;;;;;;86.30;54.27;;;6.30;99.90;;;;;;5467077;26;20214;-85
2024/04/21 16:41:43;;;;;;;7.27;4.10;;;6.20;99.90;;;;;;5469252;26;20375;-75
2024/04/21 16:44:31;;;;;;;7.60;3.83;;;6.30;99.90;;;;;;5468762;26;20728;-75
2024/04/21 16:47:20;;;;;;;8.70;4.13;;;6.40;99.90;;;;;;5467868;26;20319;-75
2024/04/21 16:50:08;;;;;;;6.70;3.53;;;6.40;99.90;;;;;;5466059;26;20335;-76
2024/04/21 16:52:56;;;;;;;5.90;3.30;;;6.20;99.90;;;;;;5466494;26;20657;-75
2024/04/21 16:55:44;;;;;;;5.87;3.03;;;6.20;99.90;;;;;;5466695;26;20217;-76
2024/04/21 16:58:33;;;;;;;6.93;3.53;;;6.20;99.90;;;;;;5467104;26;20673;-80
2024/04/21 17:01:21;;;;;;;5.83;3.70;;;6.10;99.90;;;;;;5467134;26;20558;-78
2024/04/21 17:04:09;;;;;;;5.73;3.60;;;6.00;99.90;;;;;;5467837;26;20809;-78
2024/04/21 17:07:00;;;;;;;5.40;3.07;;;5.90;99.90;;;;;;5469058;26;20224;-78
2024/04/21 17:09:50;;;;;;;4.67;3.10;;;5.90;99.90;;;;;;5487272;26;20270;-77
2024/04/21 17:12:37;;;;;;;4.23;3.07;;;6.00;99.90;;;;;;5478831;26;20747;-78
2024/04/21 17:15:25;;;;;;;8.60;4.20;;;6.00;99.90;;;;;;5475470;26;20353;-76
2024/04/21 17:18:12;;;;;;;5.13;3.07;;;5.90;99.90;;;;;;5503163;26;20214;-77
2024/04/21 17:21:00;;;;;;;4.33;3.07;;;5.90;99.90;;;;;;5494505;25;20282;-76
2024/04/21 17:23:48;;;;;;;5.53;3.20;;;5.90;99.90;;;;;;5486977;26;20319;-78
2024/04/21 17:26:35;;;;;;;5.37;3.07;;;5.90;99.90;;;;;;5487308;26;20333;-78
2024/04/21 17:29:23;;;;;;;3.97;3.17;;;5.90;99.90;;;;;;5462066;26;20214;-78
2024/04/21 17:32:10;;;;;;;4.50;3.20;;;5.90;99.90;;;;;;5461675;26;20227;-79
2024/04/21 17:34:57;;;;;;;4.03;2.93;;;5.70;99.90;;;;;;5487375;26;20590;-78
2024/04/21 17:37:46;;;;;;;6.53;3.20;;;5.70;99.90;;;;;;5463844;26;20204;-79
2024/04/21 17:40:35;;;;;;;4.20;3.03;;;5.70;99.90;;;;;;5486633;26;20227;-80
2024/04/21 17:43:22;;;;;;;5.13;3.10;;;5.70;99.90;;;;;;5463866;26;20269;-80
2024/04/21 17:46:10;;;;;;;5.57;3.00;;;5.70;99.90;;;;;;5459852;26;20728;-81
2024/04/21 17:48:57;;;;;;;4.40;2.90;;;5.60;99.90;;;;;;5487971;26;20693;-81
2024/04/21 17:51:44;;;;;;;6.50;3.83;;;5.60;99.90;;;;;;5485914;26;20959;-78
2024/04/21 17:54:32;;;;;;;5.37;3.37;;;5.50;99.90;;;;;;5461737;26;20217;-80
2024/04/21 17:57:22;;;;;;;6.30;3.72;;;5.60;99.90;;;;;;5485366;26;20402;-79
2024/04/21 18:00:10;;;;;;;7.05;4.00;;;5.50;99.90;;;;;;5486475;26;20335;-78
2024/04/21 18:02:58;;;;;;;3.80;3.00;;;5.50;99.90;;;;;;5487376;26;20258;-78
2024/04/21 18:05:46;;;;;;;4.53;3.20;;;5.40;99.90;;;;;;5485901;26;20276;-80
2024/04/21 18:08:33;;;;;;;4.70;3.13;;;5.50;99.90;;;;;;5460809;26;20264;-78
2024/04/21 18:11:25;;;;;;;90.77;49.97;;;5.50;99.90;;;;;;5488437;26;20212;-77
2024/04/21 18:14:12;;;;;;;5.63;4.20;;;5.50;99.90;;;;;;5487645;26;20214;-77
2024/04/21 18:16:59;;;;;;;6.17;3.97;;;5.50;99.90;;;;;;5487765;26;20220;-78
2024/04/21 18:20:00;;;;;;;7.43;4.40;;;5.50;99.90;;;;;;5442900;26;20225;-78
2024/04/21 18:22:47;;;;;;;8.40;4.13;;;5.50;99.90;;;;;;5458909;26;20289;-78
2024/04/21 18:25:35;;;;;;;5.73;3.93;;;5.40;99.90;;;;;;5460375;26;20282;-79
2024/04/21 18:28:22;;;;;;;6.67;3.90;;;5.40;99.90;;;;;;5486308;26;20750;-78
2024/04/21 18:31:10;;;;;;;5.53;3.40;;;5.50;99.90;;;;;;5485709;26;20211;-78
2024/04/21 18:33:58;;;;;;;5.37;3.53;;;5.40;99.90;;;;;;5485377;26;20217;-78
2024/04/21 18:36:45;;;;;;;6.33;3.40;;;5.40;99.90;;;;;;5487213;26;20215;-78
2024/04/21 18:39:32;;;;;;;4.80;3.83;;;5.40;99.90;;;;;;5486401;26;20261;-78
2024/04/21 18:42:20;;;;;;;5.17;3.33;;;5.40;99.90;;;;;;5488461;26;20208;-79
2024/04/21 18:45:09;;;;;;;6.10;3.63;;;5.40;99.90;;;;;;5486069;26;20259;-78
2024/04/21 18:47:57;;;;;;;3.83;3.10;;;5.30;99.90;;;;;;5460897;26;20316;-78
2024/04/21 18:50:45;;;;;;;5.63;3.33;;;5.30;99.90;;;;;;5458206;26;20228;-78
2024/04/21 18:53:32;;;;;;;4.97;3.47;;;5.20;99.90;;;;;;5485915;26;20216;-78
2024/04/21 18:56:20;;;;;;;5.83;2.97;;;5.20;99.90;;;;;;5485479;26;20216;-78
2024/04/21 18:59:07;;;;;;;4.00;3.20;;;5.20;99.90;;;;;;5486011;26;20260;-78
2024/04/21 19:01:55;;;;;;;4.40;2.73;;;5.10;99.90;;;;;;5486111;26;20289;-78
2024/04/21 19:04:42;;;;;;;5.27;3.30;;;5.30;99.90;;;;;;5485647;26;20622;-78
2024/04/21 19:07:30;;;;;;;5.17;3.00;;;5.20;99.90;;;;;;5461622;26;20215;-78
2024/04/21 19:10:18;;;;;;;4.17;2.80;;;5.10;99.90;;;;;;5460166;26;20637;-78
2024/04/21 19:13:07;;;;;;;4.47;2.60;;;5.10;99.90;;;;;;5485082;26;20438;-78
2024/04/21 19:15:59;;;;;;;3.80;2.63;;;5.10;99.90;;;;;;5461471;26;20212;-78
2024/04/21 19:18:50;;;;;;;4.13;2.67;;;5.20;99.90;;;;;;5457871;26;20271;-78
2024/04/21 19:21:58;;;;;;;4.07;2.83;;;5.00;99.90;;;;;;5484979;26;20218;-78
2024/04/21 19:24:46;;;;;;;5.30;2.97;;;5.00;99.90;;;;;;5284863;27;20233;-78
2024/04/21 19:27:33;;;;;;;5.47;2.80;;;5.00;99.90;;;;;;5285024;27;20723;-77
2024/04/21 19:30:21;;;;;;;4.17;2.80;;;5.00;99.90;;;;;;5282944;27;20811;-78
2024/04/21 19:33:11;;;;;;;4.70;2.90;;;5.00;99.90;;;;;;5306422;27;20644;-78
2024/04/21 19:35:58;;;;;;;6.40;3.23;;;5.00;99.90;;;;;;5306777;26;20309;-78
2024/04/21 19:38:46;;;;;;;3.83;2.60;;;5.00;99.90;;;;;;5308470;27;20220;-78
2024/04/21 19:41:33;;;;;;;4.63;3.10;;;5.00;99.90;;;;;;5307354;27;20263;-77
2024/04/21 19:44:21;;;;;;;3.80;2.83;;;4.90;99.90;;;;;;5307045;27;20230;-78
2024/04/21 19:47:08;;;;;;;5.33;2.57;;;4.90;99.90;;;;;;5284760;27;20315;-78
2024/04/21 19:49:56;;;;;;;3.80;2.50;;;4.80;99.90;;;;;;5307080;26;20228;-78
2024/04/21 19:52:44;;;;;;;5.10;2.87;;;4.80;99.90;;;;;;5284550;27;20307;-79
2024/04/21 19:55:32;;;;;;;8.07;2.70;;;4.70;99.90;;;;;;5283619;27;20266;-78
2024/04/21 19:58:20;;;;;;;5.93;2.50;;;4.70;99.90;;;;;;5283556;27;20318;-78
2024/04/21 20:01:07;;;;;;;4.33;2.70;;;4.70;99.90;;;;;;5351922;26;20268;-78
2024/04/21 20:03:55;;;;;;;4.50;2.87;;;4.60;99.90;;;;;;5485863;26;20273;-78
2024/04/21 20:06:43;;;;;;;3.70;2.40;;;4.60;99.90;;;;;;5459596;26;20322;-77
2024/04/21 20:09:30;;;;;;;4.03;2.53;;;4.60;99.90;;;;;;5447955;26;20271;-78
2024/04/21 20:12:18;;;;;;;5.53;2.57;;;4.60;99.90;;;;;;5448267;26;20213;-77
2024/04/21 20:21:19;;;;;;;6.07;2.80;;;4.60;99.90;;;;;;5447181;26;20211;-79
2024/04/21 20:24:06;;;;;;;5.10;2.83;;;4.50;99.90;;;;;;5450175;26;20221;-78
2024/04/21 20:26:53;;;;;;;6.27;3.27;;;4.50;99.90;;;;;;5449122;26;20223;-78
2024/04/21 20:29:43;;;;;;;4.70;3.17;;;4.50;99.90;;;;;;5450279;26;20321;-74
2024/04/21 20:32:31;;;;;;;5.50;2.80;;;4.50;99.90;;;;;;5449218;26;20211;-75
2024/04/21 20:35:20;;;;;;;6.17;2.90;;;4.50;99.90;;;;;;5448655;26;20637;-74
2024/04/21 20:38:22;;;;;;;4.33;2.90;;;4.50;99.90;;;;;;5449091;26;20221;-75
2024/04/21 20:41:10;;;;;;;4.37;2.80;;;4.60;99.90;;;;;;5447883;26;20314;-75
2024/04/21 20:44:21;;;;;;;5.63;3.00;;;4.60;99.90;;;;;;5449958;26;20214;-74
2024/04/21 20:47:46;;;;;;;4.00;2.90;;;4.50;99.90;;;;;;5449178;26;20214;-75
2024/04/21 20:50:36;;;;;;;4.10;2.60;;;4.60;99.90;;;;;;5449047;26;20304;-75
2024/04/21 20:53:24;;;;;;;3.87;2.80;;;4.60;99.90;;;;;;5449841;26;20254;-74
2024/04/21 20:56:11;;;;;;;4.70;3.00;;;4.60;99.90;;;;;;5450277;26;20210;-74
2024/04/21 20:58:59;;;;;;;4.77;3.10;;;4.60;99.90;;;;;;5453649;26;20264;-73
2024/04/21 21:01:46;;;;;;;5.33;2.77;;;4.60;99.90;;;;;;5451189;26;20207;-75
2024/04/21 21:04:33;;;;;;;5.67;3.17;;;4.60;99.90;;;;;;5452624;26;20404;-75
2024/04/21 21:07:21;;;;;;;4.77;2.93;;;4.50;99.90;;;;;;5453316;26;20266;-74
2024/04/21 21:10:08;;;;;;;6.47;3.67;;;4.40;99.90;;;;;;5451088;26;20341;-74
2024/04/21 21:12:56;;;;;;;43.07;23.60;;;4.40;99.90;;;;;;5452645;26;20547;-83
2024/04/21 21:15:43;;;;;;;6.83;3.73;;;4.30;99.90;;;;;;5452992;26;20210;-74
2024/04/21 21:18:31;;;;;;;6.25;3.60;;;4.30;99.90;;;;;;5452159;26;20346;-73
2024/04/21 21:21:18;;;;;;;5.32;3.00;;;4.30;99.90;;;;;;5451691;26;20435;-74
2024/04/21 21:24:07;;;;;;;4.80;2.60;;;4.30;99.90;;;;;;5453073;26;20211;-73
2024/04/21 21:26:54;;;;;;;4.63;2.43;;;4.30;99.90;;;;;;5449838;26;20266;-74
2024/04/21 21:29:41;;;;;;;3.77;2.40;;;4.30;99.90;;;;;;5453230;26;20731;-74
2024/04/21 21:32:29;;;;;;;3.27;2.23;;;4.20;99.90;;;;;;5452276;26;20318;-73
2024/04/21 21:35:16;;;;;;;3.23;2.33;;;4.20;99.90;;;;;;5450441;26;20227;-73
2024/04/21 21:38:04;;;;;;;3.80;2.50;;;4.20;99.90;;;;;;5452054;26;20754;-74
2024/04/21 21:40:52;;;;;;;4.50;2.80;;;4.30;99.90;;;;;;5451689;26;20262;-74
2024/04/21 21:43:39;;;;;;;4.90;2.63;;;4.40;99.90;;;;;;5451755;26;20212;-74
2024/04/21 21:46:27;;;;;;;3.60;2.53;;;4.30;99.90;;;;;;5451995;26;20258;-74
2024/04/21 21:49:14;;;;;;;5.23;2.97;;;4.30;99.90;;;;;;5453681;26;20269;-73
2024/04/21 21:52:01;;;;;;;4.03;2.67;;;4.40;99.90;;;;;;5450185;26;20263;-74
2024/04/21 21:54:49;;;;;;;6.20;2.90;;;4.40;99.90;;;;;;5452188;26;20211;-74
2024/04/21 21:57:38;;;;;;;4.53;2.53;;;4.40;99.90;;;;;;5450235;26;20324;-73
2024/04/21 22:00:33;;;;;;;6.23;2.80;;;4.40;99.90;;;;;;5451821;26;20223;-72
2024/04/21 22:03:22;;;;;;;6.67;2.80;;;4.40;99.90;;;;;;5451604;26;20361;-72
2024/04/21 22:06:10;;;;;;;5.33;2.90;;;4.40;99.90;;;;;;5451791;26;20224;-72
2024/04/21 22:08:57;;;;;;;4.93;2.97;;;4.50;99.90;;;;;;5457885;26;20332;-72
2024/04/21 22:11:45;;;;;;;6.67;2.93;;;4.50;99.90;;;;;;5459799;26;20211;-72
2024/04/21 22:14:33;;;;;;;4.00;2.77;;;4.50;99.90;;;;;;5486933;26;20772;-73
2024/04/21 22:17:20;;;;;;;4.33;3.03;;;4.50;99.90;;;;;;5459879;26;20273;-73
2024/04/21 22:20:08;;;;;;;4.60;2.70;;;4.40;99.90;;;;;;5487662;26;20230;-73
2024/04/21 22:22:55;;;;;;;5.90;3.13;;;4.40;99.90;;;;;;5486462;26;20216;-73
2024/04/21 22:25:46;;;;;;;4.53;2.40;;;4.30;99.90;;;;;;5486900;26;20539;-73
2024/04/21 22:32:56;;;;;;;4.63;2.80;;;4.20;99.90;;;;;;5485908;26;20219;-73
2024/04/21 22:36:16;;;;;;;4.40;2.80;;;4.20;99.90;;;;;;5462575;26;20304;-74
2024/04/21 22:39:22;;;;;;;5.83;2.90;;;4.20;99.90;;;;;;5486635;26;20702;-73
2024/04/21 22:42:32;;;;;;;3.63;2.70;;;4.20;99.90;;;;;;5486565;26;20304;-74
2024/04/21 22:45:19;;;;;;;4.77;3.20;;;4.20;99.90;;;;;;5460630;26;20287;-74
2024/04/21 22:48:07;;;;;;;8.83;3.10;;;4.20;99.90;;;;;;5487404;26;20222;-73
2024/04/21 22:50:55;;;;;;;4.87;2.87;;;4.10;99.90;;;;;;5485889;26;20218;-74
2024/04/21 22:53:42;;;;;;;6.20;3.17;;;4.00;99.90;;;;;;5485880;26;20214;-74
2024/04/21 22:56:29;;;;;;;4.53;3.10;;;4.00;99.90;;;;;;5459799;26;20260;-74
2024/04/21 22:59:17;;;;;;;4.57;3.07;;;4.10;99.90;;;;;;5459903;26;20285;-74
2024/04/21 23:02:04;;;;;;;4.37;2.70;;;4.10;99.90;;;;;;5486010;26;20872;-73
2024/04/21 23:04:52;;;;;;;7.10;3.00;;;4.00;99.90;;;;;;5486129;26;20559;-74
2024/04/21 23:07:39;;;;;;;5.37;3.00;;;4.00;99.90;;;;;;5485759;26;20733;-74
2024/04/21 23:10:27;;;;;;;4.20;2.80;;;4.10;99.90;;;;;;5485679;26;20344;-73
2024/04/21 23:13:14;;;;;;;4.63;2.53;;;4.00;99.90;;;;;;5484701;26;20257;-74
2024/04/21 23:16:05;;;;;;;5.77;3.00;;;4.00;99.90;;;;;;5487066;26;20324;-74
2024/04/21 23:18:53;;;;;;;4.23;2.67;;;4.10;99.90;;;;;;5459526;26;20211;-74
2024/04/21 23:21:41;;;;;;;5.90;3.30;;;3.90;99.90;;;;;;5485767;26;20216;-74
2024/04/21 23:24:28;;;;;;;4.77;3.27;;;3.80;99.90;;;;;;5485538;26;20442;-73
2024/04/21 23:27:15;;;;;;;4.40;3.03;;;3.80;99.90;;;;;;5485773;26;20425;-74
2024/04/21 23:30:04;;;;;;;5.53;3.23;;;3.90;99.90;;;;;;5486953;26;20210;-75
2024/04/21 23:32:52;;;;;;;5.80;3.30;;;3.90;99.90;;;;;;5484939;26;20595;-75
2024/04/21 23:35:41;;;;;;;5.70;3.20;;;3.90;99.90;;;;;;5484158;26;20338;-75
2024/04/21 23:38:28;;;;;;;4.83;3.00;;;3.90;99.90;;;;;;5461228;26;20257;-73
2024/04/21 23:41:16;;;;;;;4.60;3.00;;;3.90;99.90;;;;;;5485717;26;20636;-73
2024/04/21 23:44:03;;;;;;;4.97;3.07;;;3.80;99.90;;;;;;5460215;26;20214;-73
2024/04/21 23:46:50;;;;;;;5.57;3.30;;;3.70;99.90;;;;;;5485281;26;20274;-74
2024/04/21 23:49:38;;;;;;;5.37;3.40;;;3.70;99.90;;;;;;5485449;26;20290;-74
2024/04/21 23:52:25;;;;;;;5.33;3.07;;;3.60;99.90;;;;;;5485123;26;20210;-74
2024/04/21 23:55:13;;;;;;;5.50;3.30;;;3.60;99.90;;;;;;5485327;26;20260;-74
2024/04/21 23:58:00;;;;;;;5.33;3.00;;;3.70;99.90;;;;;;5483905;26;20214;-74
